sensor_id;sensor_type;location;lat;lon;timestamp;P1;durP1;ratioP1;P2;durP2;ratioP2
3343;SDS011;1685;53.104;8.228;2023-12-14T00:01:44;7.10;;;6.00;;
3343;SDS011;1685;53.104;8.228;2023-12-14T00:04:13;7.53;;;6.03;;
3343;SDS011;1685;53.104;8.228;2023-12-14T00:06:40;6.23;;;5.67;;
3343;SDS011;1685;53.104;8.228;2023-12-14T00:09:09;5.73;;;5.20;;
3343;SDS011;1685;53.104;8.228;2023-12-14T00:11:37;8.90;;;6.00;;
3343;SDS011;1685;53.104;8.228;2023-12-14T00:14:05;6.67;;;6.07;;
3343;SDS011;1685;53.104;8.228;2023-12-14T00:16:32;8.00;;;6.70;;
3343;SDS011;1685;53.104;8.228;2023-12-14T00:18:59;6.37;;;5.77;;
3343;SDS011;1685;53.104;8.228;2023-12-14T00:21:26;6.23;;;5.63;;
3343;SDS011;1685;53.104;8.228;2023-12-14T00:23:53;8.50;;;6.27;;
3343;SDS011;1685;53.104;8.228;2023-12-14T00:26:22;6.00;;;5.40;;
3343;SDS011;1685;53.104;8.228;2023-12-14T00:28:49;7.50;;;6.00;;
3343;SDS011;1685;53.104;8.228;2023-12-14T00:31:16;6.77;;;6.17;;
3343;SDS011;1685;53.104;8.228;2023-12-14T00:33:43;10.60;;;6.97;;
3343;SDS011;1685;53.104;8.228;2023-12-14T00:36:16;6.80;;;6.10;;
3343;SDS011;1685;53.104;8.228;2023-12-14T00:38:44;6.43;;;5.77;;
3343;SDS011;1685;53.104;8.228;2023-12-14T00:41:11;6.80;;;6.10;;
3343;SDS011;1685;53.104;8.228;2023-12-14T00:43:40;6.43;;;5.83;;
3343;SDS011;1685;53.104;8.228;2023-12-14T00:46:07;6.67;;;5.63;;
3343;SDS011;1685;53.104;8.228;2023-12-14T00:48:34;7.60;;;6.90;;
3343;SDS011;1685;53.104;8.228;2023-12-14T00:51:01;5.27;;;4.87;;
3343;SDS011;1685;53.104;8.228;2023-12-14T00:53:28;5.97;;;5.37;;
3343;SDS011;1685;53.104;8.228;2023-12-14T00:55:55;6.10;;;5.30;;
3343;SDS011;1685;53.104;8.228;2023-12-14T00:58:22;7.53;;;5.53;;
3343;SDS011;1685;53.104;8.228;2023-12-14T01:00:51;5.63;;;5.13;;
3343;SDS011;1685;53.104;8.228;2023-12-14T01:03:19;6.97;;;6.30;;
3343;SDS011;1685;53.104;8.228;2023-12-14T01:05:46;6.10;;;5.50;;
3343;SDS011;1685;53.104;8.228;2023-12-14T01:08:13;6.50;;;5.57;;
3343;SDS011;1685;53.104;8.228;2023-12-14T01:10:41;6.80;;;6.20;;
3343;SDS011;1685;53.104;8.228;2023-12-14T01:13:08;6.00;;;5.40;;
3343;SDS011;1685;53.104;8.228;2023-12-14T01:15:35;13.33;;;6.93;;
3343;SDS011;1685;53.104;8.228;2023-12-14T01:18:03;7.30;;;6.23;;
3343;SDS011;1685;53.104;8.228;2023-12-14T01:20:30;7.30;;;5.97;;
3343;SDS011;1685;53.104;8.228;2023-12-14T01:22:58;6.67;;;5.90;;
3343;SDS011;1685;53.104;8.228;2023-12-14T01:25:25;6.63;;;5.90;;
3343;SDS011;1685;53.104;8.228;2023-12-14T01:27:52;6.40;;;5.33;;
3343;SDS011;1685;53.104;8.228;2023-12-14T01:30:19;7.93;;;5.00;;
3343;SDS011;1685;53.104;8.228;2023-12-14T01:32:46;9.13;;;5.60;;
3343;SDS011;1685;53.104;8.228;2023-12-14T01:35:15;6.80;;;5.77;;
3343;SDS011;1685;53.104;8.228;2023-12-14T01:37:42;5.10;;;4.13;;
3343;SDS011;1685;53.104;8.228;2023-12-14T01:40:09;6.67;;;5.67;;
3343;SDS011;1685;53.104;8.228;2023-12-14T01:42:36;9.93;;;6.00;;
3343;SDS011;1685;53.104;8.228;2023-12-14T01:45:04;7.23;;;5.53;;
3343;SDS011;1685;53.104;8.228;2023-12-14T01:47:32;10.70;;;6.90;;
3343;SDS011;1685;53.104;8.228;2023-12-14T01:49:59;7.33;;;6.57;;
3343;SDS011;1685;53.104;8.228;2023-12-14T01:52:27;10.83;;;7.60;;
3343;SDS011;1685;53.104;8.228;2023-12-14T01:54:54;5.97;;;5.37;;
3343;SDS011;1685;53.104;8.228;2023-12-14T01:57:24;8.53;;;6.63;;
3343;SDS011;1685;53.104;8.228;2023-12-14T01:59:51;7.37;;;6.20;;
3343;SDS011;1685;53.104;8.228;2023-12-14T02:02:18;9.20;;;7.57;;
3343;SDS011;1685;53.104;8.228;2023-12-14T02:04:45;7.47;;;6.13;;
3343;SDS011;1685;53.104;8.228;2023-12-14T02:07:12;6.43;;;5.80;;
3343;SDS011;1685;53.104;8.228;2023-12-14T02:09:41;10.60;;;6.57;;
3343;SDS011;1685;53.104;8.228;2023-12-14T02:12:07;7.43;;;6.10;;
3343;SDS011;1685;53.104;8.228;2023-12-14T02:14:35;9.63;;;5.80;;
3343;SDS011;1685;53.104;8.228;2023-12-14T02:17:02;9.47;;;5.30;;
3343;SDS011;1685;53.104;8.228;2023-12-14T02:19:29;7.83;;;6.23;;
3343;SDS011;1685;53.104;8.228;2023-12-14T02:21:56;9.77;;;6.53;;
3343;SDS011;1685;53.104;8.228;2023-12-14T02:24:25;6.97;;;5.80;;
3343;SDS011;1685;53.104;8.228;2023-12-14T02:26:52;9.60;;;5.50;;
3343;SDS011;1685;53.104;8.228;2023-12-14T02:29:19;6.70;;;5.53;;
3343;SDS011;1685;53.104;8.228;2023-12-14T02:31:46;10.67;;;5.70;;
3343;SDS011;1685;53.104;8.228;2023-12-14T02:34:14;8.47;;;5.57;;
3343;SDS011;1685;53.104;8.228;2023-12-14T02:36:41;9.80;;;5.53;;
3343;SDS011;1685;53.104;8.228;2023-12-14T02:39:08;7.40;;;5.40;;
3343;SDS011;1685;53.104;8.228;2023-12-14T02:41:37;7.00;;;4.97;;
3343;SDS011;1685;53.104;8.228;2023-12-14T02:44:03;8.43;;;4.43;;
3343;SDS011;1685;53.104;8.228;2023-12-14T02:46:31;7.43;;;5.30;;
3343;SDS011;1685;53.104;8.228;2023-12-14T02:48:58;7.80;;;5.17;;
3343;SDS011;1685;53.104;8.228;2023-12-14T02:51:25;7.07;;;5.20;;
3343;SDS011;1685;53.104;8.228;2023-12-14T02:53:52;12.93;;;5.23;;
3343;SDS011;1685;53.104;8.228;2023-12-14T02:56:22;9.20;;;5.30;;
3343;SDS011;1685;53.104;8.228;2023-12-14T02:58:51;15.73;;;6.47;;
3343;SDS011;1685;53.104;8.228;2023-12-14T03:01:19;6.60;;;5.60;;
3343;SDS011;1685;53.104;8.228;2023-12-14T03:03:46;11.47;;;6.53;;
3343;SDS011;1685;53.104;8.228;2023-12-14T03:06:13;10.53;;;6.37;;
3343;SDS011;1685;53.104;8.228;2023-12-14T03:08:40;8.90;;;5.30;;
3343;SDS011;1685;53.104;8.228;2023-12-14T03:11:08;6.90;;;4.77;;
3343;SDS011;1685;53.104;8.228;2023-12-14T03:13:35;9.90;;;5.70;;
3343;SDS011;1685;53.104;8.228;2023-12-14T03:16:04;11.67;;;5.37;;
3343;SDS011;1685;53.104;8.228;2023-12-14T03:18:32;8.00;;;5.90;;
3343;SDS011;1685;53.104;8.228;2023-12-14T03:21:00;9.83;;;6.50;;
3343;SDS011;1685;53.104;8.228;2023-12-14T03:23:27;7.20;;;5.97;;
3343;SDS011;1685;53.104;8.228;2023-12-14T03:25:54;9.60;;;6.00;;
3343;SDS011;1685;53.104;8.228;2023-12-14T03:28:21;7.77;;;5.40;;
3343;SDS011;1685;53.104;8.228;2023-12-14T03:30:48;13.33;;;6.93;;
3343;SDS011;1685;53.104;8.228;2023-12-14T03:33:17;8.30;;;5.17;;
3343;SDS011;1685;53.104;8.228;2023-12-14T03:35:44;13.77;;;6.00;;
3343;SDS011;1685;53.104;8.228;2023-12-14T03:38:12;6.73;;;5.77;;
3343;SDS011;1685;53.104;8.228;2023-12-14T03:40:40;10.53;;;5.83;;
3343;SDS011;1685;53.104;8.228;2023-12-14T03:43:07;11.00;;;6.17;;
3343;SDS011;1685;53.104;8.228;2023-12-14T03:45:33;15.60;;;6.40;;
3343;SDS011;1685;53.104;8.228;2023-12-14T03:48:00;8.00;;;6.43;;
3343;SDS011;1685;53.104;8.228;2023-12-14T03:50:28;13.27;;;6.57;;
3343;SDS011;1685;53.104;8.228;2023-12-14T03:52:55;9.00;;;6.20;;
3343;SDS011;1685;53.104;8.228;2023-12-14T03:55:22;13.03;;;5.93;;
3343;SDS011;1685;53.104;8.228;2023-12-14T03:57:50;9.07;;;6.40;;
3343;SDS011;1685;53.104;8.228;2023-12-14T04:00:17;7.10;;;5.70;;
3343;SDS011;1685;53.104;8.228;2023-12-14T04:02:44;8.80;;;6.07;;
3343;SDS011;1685;53.104;8.228;2023-12-14T04:05:11;10.10;;;6.03;;
3343;SDS011;1685;53.104;8.228;2023-12-14T04:07:40;10.53;;;5.90;;
3343;SDS011;1685;53.104;8.228;2023-12-14T04:10:07;9.03;;;6.40;;
3343;SDS011;1685;53.104;8.228;2023-12-14T04:12:34;9.10;;;6.20;;
3343;SDS011;1685;53.104;8.228;2023-12-14T04:15:02;9.70;;;6.13;;
3343;SDS011;1685;53.104;8.228;2023-12-14T04:17:30;9.70;;;6.60;;
3343;SDS011;1685;53.104;8.228;2023-12-14T04:19:57;8.87;;;7.33;;
3343;SDS011;1685;53.104;8.228;2023-12-14T04:22:24;11.37;;;6.93;;
3343;SDS011;1685;53.104;8.228;2023-12-14T04:24:52;10.33;;;6.83;;
3343;SDS011;1685;53.104;8.228;2023-12-14T04:27:19;11.87;;;8.03;;
3343;SDS011;1685;53.104;8.228;2023-12-14T04:29:49;10.63;;;6.87;;
3343;SDS011;1685;53.104;8.228;2023-12-14T04:32:16;11.80;;;7.87;;
3343;SDS011;1685;53.104;8.228;2023-12-14T04:34:43;12.87;;;6.13;;
3343;SDS011;1685;53.104;8.228;2023-12-14T04:37:10;9.37;;;6.50;;
3343;SDS011;1685;53.104;8.228;2023-12-14T04:39:37;12.87;;;7.20;;
3343;SDS011;1685;53.104;8.228;2023-12-14T04:42:06;14.20;;;7.23;;
3343;SDS011;1685;53.104;8.228;2023-12-14T04:44:33;15.70;;;7.60;;
3343;SDS011;1685;53.104;8.228;2023-12-14T04:47:00;14.27;;;7.30;;
3343;SDS011;1685;53.104;8.228;2023-12-14T04:49:27;13.30;;;7.13;;
3343;SDS011;1685;53.104;8.228;2023-12-14T04:51:54;10.13;;;7.20;;
3343;SDS011;1685;53.104;8.228;2023-12-14T04:54:21;25.70;;;7.13;;
3343;SDS011;1685;53.104;8.228;2023-12-14T04:56:49;14.83;;;7.63;;
3343;SDS011;1685;53.104;8.228;2023-12-14T04:59:17;12.63;;;7.57;;
3343;SDS011;1685;53.104;8.228;2023-12-14T05:01:44;15.50;;;7.67;;
3343;SDS011;1685;53.104;8.228;2023-12-14T05:04:11;10.53;;;7.20;;
3343;SDS011;1685;53.104;8.228;2023-12-14T05:06:38;14.83;;;7.90;;
3343;SDS011;1685;53.104;8.228;2023-12-14T05:09:05;13.83;;;7.87;;
3343;SDS011;1685;53.104;8.228;2023-12-14T05:11:32;10.20;;;7.10;;
3343;SDS011;1685;53.104;8.228;2023-12-14T05:14:00;12.57;;;8.23;;
3343;SDS011;1685;53.104;8.228;2023-12-14T05:16:28;12.70;;;7.83;;
3343;SDS011;1685;53.104;8.228;2023-12-14T05:18:55;14.93;;;7.77;;
3343;SDS011;1685;53.104;8.228;2023-12-14T05:21:23;9.13;;;6.50;;
3343;SDS011;1685;53.104;8.228;2023-12-14T05:23:50;11.77;;;7.47;;
3343;SDS011;1685;53.104;8.228;2023-12-14T05:26:18;12.73;;;8.50;;
3343;SDS011;1685;53.104;8.228;2023-12-14T05:28:46;11.27;;;7.70;;
3343;SDS011;1685;53.104;8.228;2023-12-14T05:31:13;13.47;;;8.30;;
3343;SDS011;1685;53.104;8.228;2023-12-14T05:33:41;13.07;;;8.30;;
3343;SDS011;1685;53.104;8.228;2023-12-14T05:36:08;13.73;;;8.47;;
3343;SDS011;1685;53.104;8.228;2023-12-14T05:38:35;13.23;;;8.50;;
3343;SDS011;1685;53.104;8.228;2023-12-14T05:41:03;14.90;;;9.60;;
3343;SDS011;1685;53.104;8.228;2023-12-14T05:43:30;13.40;;;9.23;;
3343;SDS011;1685;53.104;8.228;2023-12-14T05:45:57;12.33;;;8.50;;
3343;SDS011;1685;53.104;8.228;2023-12-14T05:48:24;16.47;;;8.60;;
3343;SDS011;1685;53.104;8.228;2023-12-14T05:50:54;15.90;;;10.00;;
3343;SDS011;1685;53.104;8.228;2023-12-14T05:53:22;18.57;;;9.93;;
3343;SDS011;1685;53.104;8.228;2023-12-14T05:55:49;19.43;;;11.43;;
3343;SDS011;1685;53.104;8.228;2023-12-14T05:58:16;19.30;;;9.50;;
3343;SDS011;1685;53.104;8.228;2023-12-14T06:00:43;24.67;;;10.73;;
3343;SDS011;1685;53.104;8.228;2023-12-14T06:03:10;17.73;;;8.90;;
3343;SDS011;1685;53.104;8.228;2023-12-14T06:05:37;13.83;;;8.60;;
3343;SDS011;1685;53.104;8.228;2023-12-14T06:08:06;17.57;;;9.80;;
3343;SDS011;1685;53.104;8.228;2023-12-14T06:10:33;15.73;;;9.17;;
3343;SDS011;1685;53.104;8.228;2023-12-14T06:13:00;19.93;;;11.40;;
3343;SDS011;1685;53.104;8.228;2023-12-14T06:15:27;26.60;;;10.90;;
3343;SDS011;1685;53.104;8.228;2023-12-14T06:17:54;27.97;;;10.90;;
3343;SDS011;1685;53.104;8.228;2023-12-14T06:20:21;27.87;;;11.30;;
3343;SDS011;1685;53.104;8.228;2023-12-14T06:22:48;27.10;;;11.27;;
3343;SDS011;1685;53.104;8.228;2023-12-14T06:25:17;16.17;;;10.80;;
3343;SDS011;1685;53.104;8.228;2023-12-14T06:27:44;18.73;;;10.10;;
3343;SDS011;1685;53.104;8.228;2023-12-14T06:30:11;18.63;;;10.10;;
3343;SDS011;1685;53.104;8.228;2023-12-14T06:32:38;23.87;;;12.37;;
3343;SDS011;1685;53.104;8.228;2023-12-14T06:35:06;21.77;;;10.03;;
3343;SDS011;1685;53.104;8.228;2023-12-14T06:37:33;23.00;;;12.73;;
3343;SDS011;1685;53.104;8.228;2023-12-14T06:40:00;22.37;;;12.13;;
3343;SDS011;1685;53.104;8.228;2023-12-14T06:42:29;25.50;;;11.60;;
3343;SDS011;1685;53.104;8.228;2023-12-14T06:44:56;20.27;;;11.93;;
3343;SDS011;1685;53.104;8.228;2023-12-14T06:47:23;26.13;;;12.00;;
3343;SDS011;1685;53.104;8.228;2023-12-14T06:49:50;20.30;;;11.40;;
3343;SDS011;1685;53.104;8.228;2023-12-14T06:52:17;17.80;;;10.63;;
3343;SDS011;1685;53.104;8.228;2023-12-14T06:54:44;18.17;;;11.03;;
3343;SDS011;1685;53.104;8.228;2023-12-14T06:57:11;24.70;;;11.80;;
3343;SDS011;1685;53.104;8.228;2023-12-14T06:59:40;20.10;;;11.20;;
3343;SDS011;1685;53.104;8.228;2023-12-14T07:02:07;18.27;;;11.00;;
3343;SDS011;1685;53.104;8.228;2023-12-14T07:04:34;24.87;;;11.57;;
3343;SDS011;1685;53.104;8.228;2023-12-14T07:07:01;19.87;;;11.30;;
3343;SDS011;1685;53.104;8.228;2023-12-14T07:09:28;25.43;;;12.57;;
3343;SDS011;1685;53.104;8.228;2023-12-14T07:11:56;21.30;;;10.97;;
3343;SDS011;1685;53.104;8.228;2023-12-14T07:14:23;26.83;;;12.13;;
3343;SDS011;1685;53.104;8.228;2023-12-14T07:16:52;27.03;;;12.90;;
3343;SDS011;1685;53.104;8.228;2023-12-14T07:19:19;25.17;;;12.60;;
3343;SDS011;1685;53.104;8.228;2023-12-14T07:21:46;20.50;;;11.40;;
3343;SDS011;1685;53.104;8.228;2023-12-14T07:24:13;22.70;;;11.70;;
3343;SDS011;1685;53.104;8.228;2023-12-14T07:26:40;20.70;;;12.30;;
3343;SDS011;1685;53.104;8.228;2023-12-14T07:29:07;19.30;;;11.50;;
3343;SDS011;1685;53.104;8.228;2023-12-14T07:31:34;30.07;;;13.33;;
3343;SDS011;1685;53.104;8.228;2023-12-14T07:34:03;21.00;;;12.90;;
3343;SDS011;1685;53.104;8.228;2023-12-14T07:36:30;21.97;;;12.60;;
3343;SDS011;1685;53.104;8.228;2023-12-14T07:38:57;21.50;;;12.03;;
3343;SDS011;1685;53.104;8.228;2023-12-14T07:41:26;29.73;;;13.10;;
3343;SDS011;1685;53.104;8.228;2023-12-14T07:43:54;30.03;;;14.17;;
3343;SDS011;1685;53.104;8.228;2023-12-14T07:46:22;29.93;;;12.40;;
3343;SDS011;1685;53.104;8.228;2023-12-14T07:48:49;20.43;;;12.47;;
3343;SDS011;1685;53.104;8.228;2023-12-14T07:51:17;25.53;;;13.10;;
3343;SDS011;1685;53.104;8.228;2023-12-14T07:53:44;19.13;;;12.10;;
3343;SDS011;1685;53.104;8.228;2023-12-14T07:56:11;23.90;;;12.13;;
3343;SDS011;1685;53.104;8.228;2023-12-14T07:58:39;27.23;;;13.20;;
3343;SDS011;1685;53.104;8.228;2023-12-14T08:01:06;23.00;;;12.20;;
3343;SDS011;1685;53.104;8.228;2023-12-14T08:03:33;21.30;;;12.90;;
3343;SDS011;1685;53.104;8.228;2023-12-14T08:06:01;23.43;;;12.80;;
3343;SDS011;1685;53.104;8.228;2023-12-14T08:08:29;27.73;;;13.70;;
3343;SDS011;1685;53.104;8.228;2023-12-14T08:10:56;24.33;;;12.03;;
3343;SDS011;1685;53.104;8.228;2023-12-14T08:13:23;24.67;;;13.80;;
3343;SDS011;1685;53.104;8.228;2023-12-14T08:15:50;21.07;;;12.63;;
3343;SDS011;1685;53.104;8.228;2023-12-14T08:18:18;32.50;;;13.33;;
3343;SDS011;1685;53.104;8.228;2023-12-14T08:20:45;20.23;;;12.37;;
3343;SDS011;1685;53.104;8.228;2023-12-14T08:23:12;28.20;;;12.70;;
3343;SDS011;1685;53.104;8.228;2023-12-14T08:25:40;28.33;;;13.47;;
3343;SDS011;1685;53.104;8.228;2023-12-14T08:28:07;22.77;;;13.20;;
3343;SDS011;1685;53.104;8.228;2023-12-14T08:30:34;25.30;;;13.40;;
3343;SDS011;1685;53.104;8.228;2023-12-14T08:33:04;23.93;;;14.10;;
3343;SDS011;1685;53.104;8.228;2023-12-14T08:35:31;30.13;;;14.07;;
3343;SDS011;1685;53.104;8.228;2023-12-14T08:37:58;21.77;;;12.47;;
3343;SDS011;1685;53.104;8.228;2023-12-14T08:40:25;35.40;;;12.90;;
3343;SDS011;1685;53.104;8.228;2023-12-14T08:42:54;18.70;;;12.77;;
3343;SDS011;1685;53.104;8.228;2023-12-14T08:45:20;24.40;;;13.10;;
3343;SDS011;1685;53.104;8.228;2023-12-14T08:47:47;22.10;;;13.17;;
3343;SDS011;1685;53.104;8.228;2023-12-14T08:50:15;32.30;;;12.30;;
3343;SDS011;1685;53.104;8.228;2023-12-14T08:52:42;24.37;;;12.33;;
3343;SDS011;1685;53.104;8.228;2023-12-14T08:55:09;23.83;;;11.13;;
3343;SDS011;1685;53.104;8.228;2023-12-14T08:57:36;23.20;;;13.27;;
3343;SDS011;1685;53.104;8.228;2023-12-14T09:00:05;20.80;;;12.60;;
3343;SDS011;1685;53.104;8.228;2023-12-14T09:02:33;20.63;;;12.50;;
3343;SDS011;1685;53.104;8.228;2023-12-14T09:05:00;22.13;;;12.13;;
3343;SDS011;1685;53.104;8.228;2023-12-14T09:07:27;24.47;;;12.43;;
3343;SDS011;1685;53.104;8.228;2023-12-14T09:09:54;25.33;;;12.60;;
3343;SDS011;1685;53.104;8.228;2023-12-14T09:12:21;30.27;;;15.10;;
3343;SDS011;1685;53.104;8.228;2023-12-14T09:14:49;20.57;;;12.50;;
3343;SDS011;1685;53.104;8.228;2023-12-14T09:17:17;25.60;;;14.40;;
3343;SDS011;1685;53.104;8.228;2023-12-14T09:19:44;30.27;;;14.10;;
3343;SDS011;1685;53.104;8.228;2023-12-14T09:22:11;23.57;;;13.30;;
3343;SDS011;1685;53.104;8.228;2023-12-14T09:24:38;18.93;;;11.87;;
3343;SDS011;1685;53.104;8.228;2023-12-14T09:27:06;21.17;;;12.07;;
3343;SDS011;1685;53.104;8.228;2023-12-14T09:29:33;25.10;;;13.93;;
3343;SDS011;1685;53.104;8.228;2023-12-14T09:32:00;19.60;;;12.30;;
3343;SDS011;1685;53.104;8.228;2023-12-14T09:34:28;22.10;;;11.63;;
3343;SDS011;1685;53.104;8.228;2023-12-14T09:36:55;20.40;;;13.53;;
3343;SDS011;1685;53.104;8.228;2023-12-14T09:39:22;20.50;;;12.63;;
3343;SDS011;1685;53.104;8.228;2023-12-14T09:41:50;18.83;;;12.70;;
3343;SDS011;1685;53.104;8.228;2023-12-14T09:44:17;38.00;;;20.77;;
3343;SDS011;1685;53.104;8.228;2023-12-14T09:46:44;24.23;;;13.33;;
3343;SDS011;1685;53.104;8.228;2023-12-14T09:49:14;18.10;;;12.03;;
3343;SDS011;1685;53.104;8.228;2023-12-14T09:51:43;20.70;;;11.97;;
3343;SDS011;1685;53.104;8.228;2023-12-14T09:54:11;27.40;;;12.47;;
3343;SDS011;1685;53.104;8.228;2023-12-14T09:56:44;19.60;;;12.53;;
3343;SDS011;1685;53.104;8.228;2023-12-14T09:59:12;22.07;;;13.20;;
3343;SDS011;1685;53.104;8.228;2023-12-14T10:01:39;26.30;;;11.70;;
3343;SDS011;1685;53.104;8.228;2023-12-14T10:04:07;24.97;;;13.53;;
3343;SDS011;1685;53.104;8.228;2023-12-14T10:06:35;20.17;;;12.50;;
3343;SDS011;1685;53.104;8.228;2023-12-14T10:09:04;16.33;;;11.00;;
3343;SDS011;1685;53.104;8.228;2023-12-14T10:11:34;22.00;;;13.03;;
3343;SDS011;1685;53.104;8.228;2023-12-14T10:14:01;26.63;;;11.70;;
3343;SDS011;1685;53.104;8.228;2023-12-14T10:16:29;24.90;;;12.40;;
3343;SDS011;1685;53.104;8.228;2023-12-14T10:18:57;24.80;;;11.97;;
3343;SDS011;1685;53.104;8.228;2023-12-14T10:21:25;16.50;;;11.57;;
3343;SDS011;1685;53.104;8.228;2023-12-14T10:23:54;19.13;;;12.10;;
3343;SDS011;1685;53.104;8.228;2023-12-14T10:26:23;23.30;;;11.73;;
3343;SDS011;1685;53.104;8.228;2023-12-14T10:28:51;21.33;;;12.10;;
3343;SDS011;1685;53.104;8.228;2023-12-14T10:31:18;20.53;;;11.90;;
3343;SDS011;1685;53.104;8.228;2023-12-14T10:33:46;18.87;;;12.27;;
3343;SDS011;1685;53.104;8.228;2023-12-14T10:36:15;18.10;;;11.33;;
3343;SDS011;1685;53.104;8.228;2023-12-14T10:38:46;19.83;;;9.87;;
3343;SDS011;1685;53.104;8.228;2023-12-14T10:41:15;18.23;;;11.67;;
3343;SDS011;1685;53.104;8.228;2023-12-14T10:43:45;19.60;;;10.80;;
3343;SDS011;1685;53.104;8.228;2023-12-14T10:46:14;26.43;;;11.60;;
3343;SDS011;1685;53.104;8.228;2023-12-14T10:48:41;22.33;;;10.03;;
3343;SDS011;1685;53.104;8.228;2023-12-14T10:51:10;18.40;;;10.47;;
3343;SDS011;1685;53.104;8.228;2023-12-14T10:53:38;17.80;;;11.60;;
3343;SDS011;1685;53.104;8.228;2023-12-14T10:56:08;14.73;;;9.03;;
3343;SDS011;1685;53.104;8.228;2023-12-14T10:58:48;15.53;;;10.60;;
3343;SDS011;1685;53.104;8.228;2023-12-14T11:01:18;18.87;;;10.63;;
3343;SDS011;1685;53.104;8.228;2023-12-14T11:03:46;17.27;;;10.40;;
3343;SDS011;1685;53.104;8.228;2023-12-14T11:06:25;20.90;;;10.70;;
3343;SDS011;1685;53.104;8.228;2023-12-14T11:08:56;16.47;;;10.43;;
3343;SDS011;1685;53.104;8.228;2023-12-14T11:11:27;13.97;;;10.57;;
3343;SDS011;1685;53.104;8.228;2023-12-14T11:13:56;14.97;;;8.80;;
3343;SDS011;1685;53.104;8.228;2023-12-14T11:16:23;16.50;;;9.03;;
3343;SDS011;1685;53.104;8.228;2023-12-14T11:22:09;15.30;;;10.17;;
3343;SDS011;1685;53.104;8.228;2023-12-14T11:24:52;17.80;;;9.97;;
3343;SDS011;1685;53.104;8.228;2023-12-14T11:27:25;21.53;;;10.70;;
3343;SDS011;1685;53.104;8.228;2023-12-14T11:29:54;18.90;;;10.20;;
3343;SDS011;1685;53.104;8.228;2023-12-14T11:32:22;17.80;;;10.80;;
3343;SDS011;1685;53.104;8.228;2023-12-14T11:34:49;17.17;;;10.47;;
3343;SDS011;1685;53.104;8.228;2023-12-14T11:37:17;15.10;;;10.20;;
3343;SDS011;1685;53.104;8.228;2023-12-14T11:39:45;20.73;;;10.17;;
3343;SDS011;1685;53.104;8.228;2023-12-14T11:42:12;20.47;;;10.97;;
3343;SDS011;1685;53.104;8.228;2023-12-14T11:44:43;15.47;;;10.47;;
3343;SDS011;1685;53.104;8.228;2023-12-14T11:47:11;17.53;;;11.17;;
3343;SDS011;1685;53.104;8.228;2023-12-14T11:49:38;16.30;;;9.83;;
3343;SDS011;1685;53.104;8.228;2023-12-14T11:52:05;19.13;;;10.90;;
3343;SDS011;1685;53.104;8.228;2023-12-14T11:54:34;15.97;;;10.23;;
3343;SDS011;1685;53.104;8.228;2023-12-14T11:57:01;16.13;;;9.03;;
3343;SDS011;1685;53.104;8.228;2023-12-14T11:59:29;19.30;;;11.10;;
3343;SDS011;1685;53.104;8.228;2023-12-14T12:01:56;16.00;;;10.27;;
3343;SDS011;1685;53.104;8.228;2023-12-14T12:04:26;17.30;;;9.30;;
3343;SDS011;1685;53.104;8.228;2023-12-14T12:07:00;16.40;;;8.63;;
3343;SDS011;1685;53.104;8.228;2023-12-14T12:09:35;18.07;;;10.07;;
3343;SDS011;1685;53.104;8.228;2023-12-14T12:12:05;17.10;;;9.80;;
3343;SDS011;1685;53.104;8.228;2023-12-14T12:14:32;16.90;;;9.73;;
3343;SDS011;1685;53.104;8.228;2023-12-14T12:17:00;14.53;;;8.73;;
3343;SDS011;1685;53.104;8.228;2023-12-14T12:19:28;18.73;;;10.10;;
3343;SDS011;1685;53.104;8.228;2023-12-14T12:21:55;18.40;;;9.10;;
3343;SDS011;1685;53.104;8.228;2023-12-14T12:24:22;19.17;;;9.87;;
3343;SDS011;1685;53.104;8.228;2023-12-14T12:26:49;16.37;;;9.83;;
3343;SDS011;1685;53.104;8.228;2023-12-14T12:29:16;19.87;;;10.13;;
3343;SDS011;1685;53.104;8.228;2023-12-14T12:31:43;17.50;;;10.40;;
3343;SDS011;1685;53.104;8.228;2023-12-14T12:34:11;14.83;;;9.00;;
3343;SDS011;1685;53.104;8.228;2023-12-14T12:36:39;15.30;;;9.53;;
3343;SDS011;1685;53.104;8.228;2023-12-14T12:39:06;19.30;;;9.60;;
3343;SDS011;1685;53.104;8.228;2023-12-14T12:41:34;18.40;;;9.87;;
3343;SDS011;1685;53.104;8.228;2023-12-14T12:44:02;15.83;;;10.10;;
3343;SDS011;1685;53.104;8.228;2023-12-14T12:46:31;15.47;;;8.77;;
3343;SDS011;1685;53.104;8.228;2023-12-14T12:48:59;14.53;;;9.80;;
3343;SDS011;1685;53.104;8.228;2023-12-14T12:51:26;22.23;;;9.47;;
3343;SDS011;1685;53.104;8.228;2023-12-14T12:53:56;11.33;;;8.33;;
3343;SDS011;1685;53.104;8.228;2023-12-14T12:56:24;17.20;;;8.80;;
3343;SDS011;1685;53.104;8.228;2023-12-14T12:58:51;15.60;;;9.03;;
3343;SDS011;1685;53.104;8.228;2023-12-14T13:01:19;17.07;;;9.23;;
3343;SDS011;1685;53.104;8.228;2023-12-14T13:03:47;13.70;;;8.87;;
3343;SDS011;1685;53.104;8.228;2023-12-14T13:06:14;16.33;;;9.83;;
3343;SDS011;1685;53.104;8.228;2023-12-14T13:08:41;12.77;;;8.77;;
3343;SDS011;1685;53.104;8.228;2023-12-14T13:11:10;17.40;;;9.10;;
3343;SDS011;1685;53.104;8.228;2023-12-14T13:13:37;16.50;;;9.20;;
3343;SDS011;1685;53.104;8.228;2023-12-14T13:16:04;18.20;;;9.50;;
3343;SDS011;1685;53.104;8.228;2023-12-14T13:18:31;16.40;;;11.00;;
3343;SDS011;1685;53.104;8.228;2023-12-14T13:20:59;14.83;;;10.20;;
3343;SDS011;1685;53.104;8.228;2023-12-14T13:23:26;15.20;;;10.10;;
3343;SDS011;1685;53.104;8.228;2023-12-14T13:25:53;15.83;;;11.10;;
3343;SDS011;1685;53.104;8.228;2023-12-14T13:28:21;18.40;;;10.60;;
3343;SDS011;1685;53.104;8.228;2023-12-14T13:30:49;14.83;;;10.10;;
3343;SDS011;1685;53.104;8.228;2023-12-14T13:33:16;13.97;;;9.70;;
3343;SDS011;1685;53.104;8.228;2023-12-14T13:35:43;14.60;;;10.00;;
3343;SDS011;1685;53.104;8.228;2023-12-14T13:38:11;16.70;;;10.33;;
3343;SDS011;1685;53.104;8.228;2023-12-14T13:40:39;16.20;;;9.63;;
3343;SDS011;1685;53.104;8.228;2023-12-14T13:43:06;19.60;;;10.00;;
3343;SDS011;1685;53.104;8.228;2023-12-14T13:45:36;20.00;;;10.27;;
3343;SDS011;1685;53.104;8.228;2023-12-14T13:48:04;13.93;;;9.37;;
3343;SDS011;1685;53.104;8.228;2023-12-14T13:50:32;14.90;;;9.90;;
3343;SDS011;1685;53.104;8.228;2023-12-14T13:52:59;14.03;;;9.03;;
3343;SDS011;1685;53.104;8.228;2023-12-14T13:55:27;23.77;;;10.57;;
3343;SDS011;1685;53.104;8.228;2023-12-14T13:57:54;31.00;;;12.40;;
3343;SDS011;1685;53.104;8.228;2023-12-14T14:00:23;17.43;;;10.73;;
3343;SDS011;1685;53.104;8.228;2023-12-14T14:02:51;15.57;;;10.90;;
3343;SDS011;1685;53.104;8.228;2023-12-14T14:05:17;18.27;;;11.03;;
3343;SDS011;1685;53.104;8.228;2023-12-14T14:07:45;25.20;;;11.73;;
3343;SDS011;1685;53.104;8.228;2023-12-14T14:10:12;15.80;;;10.47;;
3343;SDS011;1685;53.104;8.228;2023-12-14T14:12:39;18.33;;;11.43;;
3343;SDS011;1685;53.104;8.228;2023-12-14T14:15:07;15.30;;;11.10;;
3343;SDS011;1685;53.104;8.228;2023-12-14T14:17:34;25.50;;;11.03;;
3343;SDS011;1685;53.104;8.228;2023-12-14T14:20:03;16.97;;;10.20;;
3343;SDS011;1685;53.104;8.228;2023-12-14T14:22:31;18.90;;;10.33;;
3343;SDS011;1685;53.104;8.228;2023-12-14T14:24:59;20.80;;;10.20;;
3343;SDS011;1685;53.104;8.228;2023-12-14T14:27:26;19.40;;;10.70;;
3343;SDS011;1685;53.104;8.228;2023-12-14T14:29:53;16.97;;;11.60;;
3343;SDS011;1685;53.104;8.228;2023-12-14T14:32:21;14.90;;;10.67;;
3343;SDS011;1685;53.104;8.228;2023-12-14T14:34:48;21.10;;;10.73;;
3343;SDS011;1685;53.104;8.228;2023-12-14T14:37:17;20.07;;;11.20;;
3343;SDS011;1685;53.104;8.228;2023-12-14T14:39:43;16.43;;;10.20;;
3343;SDS011;1685;53.104;8.228;2023-12-14T14:42:11;16.67;;;10.50;;
3343;SDS011;1685;53.104;8.228;2023-12-14T14:44:38;22.60;;;11.47;;
3343;SDS011;1685;53.104;8.228;2023-12-14T14:47:05;18.47;;;11.83;;
3343;SDS011;1685;53.104;8.228;2023-12-14T14:49:33;18.77;;;11.40;;
3343;SDS011;1685;53.104;8.228;2023-12-14T14:52:00;27.37;;;13.10;;
3343;SDS011;1685;53.104;8.228;2023-12-14T14:54:28;19.40;;;11.70;;
3343;SDS011;1685;53.104;8.228;2023-12-14T14:56:55;24.03;;;12.80;;
3343;SDS011;1685;53.104;8.228;2023-12-14T14:59:22;23.30;;;13.23;;
3343;SDS011;1685;53.104;8.228;2023-12-14T15:01:49;35.57;;;14.20;;
3343;SDS011;1685;53.104;8.228;2023-12-14T15:04:17;22.63;;;14.50;;